createdAt,value
2023-04-29T00:02:32.104Z,58.00
2023-04-29T00:05:18.349Z,58.40
2023-04-29T00:08:04.552Z,59.30
2023-04-29T00:10:50.345Z,58.92
2023-04-29T00:13:36.266Z,59.14
2023-04-29T00:16:22.105Z,59.66
2023-04-29T00:19:08.104Z,59.20
2023-04-29T00:21:54.007Z,59.74
2023-04-29T00:24:39.792Z,58.55
2023-04-29T00:27:25.629Z,58.53
2023-04-29T00:30:11.528Z,59.64
2023-04-29T00:32:57.527Z,60.65
2023-04-29T00:35:43.592Z,60.01
2023-04-29T00:38:29.314Z,59.10
2023-04-29T00:41:15.289Z,60.88
2023-04-29T00:44:03.293Z,61.46
2023-04-29T00:46:49.265Z,61.88
2023-04-29T00:49:35.023Z,61.94
2023-04-29T00:52:20.884Z,61.35
2023-04-29T00:55:06.692Z,61.12
2023-04-29T00:57:52.721Z,61.99
2023-04-29T01:00:38.554Z,67.10
2023-04-29T01:03:24.572Z,67.82
2023-04-29T01:06:10.929Z,68.03
2023-04-29T01:08:56.759Z,67.15
2023-04-29T01:11:42.746Z,66.35
2023-04-29T01:14:28.556Z,66.19
2023-04-29T01:17:14.412Z,65.52
2023-04-29T01:20:00.415Z,65.03
2023-04-29T01:22:46.156Z,63.66
2023-04-29T01:25:31.995Z,63.51
2023-04-29T01:28:17.933Z,63.09
2023-04-29T01:31:03.848Z,62.34
2023-04-29T01:33:49.758Z,61.95
2023-04-29T01:36:35.658Z,61.50
2023-04-29T01:39:21.481Z,61.52
2023-04-29T01:42:09.357Z,61.15
2023-04-29T01:44:55.229Z,61.19
2023-04-29T01:47:41.197Z,61.51
2023-04-29T01:50:27.060Z,62.74
2023-04-29T01:53:12.790Z,62.50
2023-04-29T01:55:58.835Z,62.64
2023-04-29T01:58:44.628Z,62.72
2023-04-29T02:01:30.481Z,62.68
2023-04-29T02:04:16.380Z,62.92
2023-04-29T02:07:04.246Z,63.00
2023-04-29T02:09:50.045Z,62.70
2023-04-29T02:12:36.051Z,62.00
2023-04-29T02:15:21.864Z,62.08
2023-04-29T02:18:07.821Z,62.91
2023-04-29T02:20:53.738Z,62.88
2023-04-29T02:23:39.363Z,62.39
2023-04-29T02:26:25.298Z,61.96
2023-04-29T02:29:11.133Z,63.07
2023-04-29T02:31:57.034Z,61.60
2023-04-29T02:34:42.935Z,62.48
2023-04-29T02:37:28.707Z,65.20
2023-04-29T02:40:14.657Z,65.36
2023-04-29T02:43:00.608Z,64.97
2023-04-29T02:45:46.511Z,63.40
2023-04-29T02:48:32.425Z,63.81
2023-04-29T02:51:18.160Z,63.99
2023-04-29T02:54:04.086Z,64.11
2023-04-29T02:56:50.047Z,63.30
2023-04-29T02:59:35.908Z,64.06
2023-04-29T03:02:21.985Z,63.75
2023-04-29T03:05:07.790Z,64.82
2023-04-29T03:07:53.618Z,65.03
2023-04-29T03:10:41.261Z,63.89
2023-04-29T03:13:27.898Z,63.52
2023-04-29T03:16:13.607Z,63.22
2023-04-29T03:18:59.476Z,63.58
2023-04-29T03:21:45.214Z,62.96
2023-04-29T03:24:30.986Z,62.42
2023-04-29T03:27:16.713Z,61.91
2023-04-29T03:30:02.631Z,61.84
2023-04-29T03:32:48.475Z,61.43
2023-04-29T03:35:34.221Z,61.42
2023-04-29T03:38:20.160Z,61.92
2023-04-29T03:41:06.148Z,62.17
2023-04-29T03:43:51.909Z,61.93
2023-04-29T03:46:37.888Z,61.74
2023-04-29T03:49:23.970Z,62.44
2023-04-29T03:52:09.813Z,62.96
2023-04-29T03:54:55.647Z,63.05
2023-04-29T03:57:42.603Z,62.43
2023-04-29T04:00:28.865Z,63.00
2023-04-29T04:03:14.958Z,62.80
2023-04-29T04:06:01.144Z,62.80
2023-04-29T04:08:47.019Z,63.50
2023-04-29T04:11:32.887Z,63.05
2023-04-29T04:14:18.812Z,63.74
2023-04-29T04:17:04.888Z,63.34
2023-04-29T04:19:50.825Z,62.80
2023-04-29T04:22:37.016Z,63.73
2023-04-29T04:25:22.884Z,63.45
2023-04-29T04:28:08.604Z,62.80
2023-04-29T04:30:54.412Z,64.26
2023-04-29T04:33:40.259Z,64.20
2023-04-29T04:36:26.166Z,64.27
2023-04-29T04:39:12.039Z,64.03
2023-04-29T04:41:57.888Z,63.59
2023-04-29T04:44:43.737Z,64.15
2023-04-29T04:47:29.738Z,63.89
2023-04-29T04:50:15.556Z,63.91
2023-04-29T04:53:01.563Z,64.64
2023-04-29T04:55:47.474Z,64.64
2023-04-29T04:58:33.458Z,65.37
2023-04-29T05:01:19.277Z,64.77
2023-04-29T05:04:05.299Z,64.58
2023-04-29T05:06:51.614Z,65.03
2023-04-29T05:09:37.410Z,65.47
2023-04-29T05:12:23.405Z,65.09
2023-04-29T05:15:10.223Z,64.28
2023-04-29T05:17:56.203Z,63.84
2023-04-29T05:20:42.151Z,64.93
2023-04-29T05:23:29.927Z,65.54
2023-04-29T05:26:15.607Z,64.53
2023-04-29T05:29:01.553Z,64.84
2023-04-29T05:31:47.400Z,70.33
2023-04-29T05:34:33.205Z,81.09
2023-04-29T05:37:19.050Z,80.62
2023-04-29T05:40:04.859Z,85.45
2023-04-29T05:42:50.714Z,90.21
2023-04-29T05:45:36.556Z,89.82
2023-04-29T05:48:22.428Z,89.36
2023-04-29T05:51:08.396Z,88.15
2023-04-29T05:53:54.210Z,81.83
2023-04-29T05:56:40.075Z,78.98
2023-04-29T05:59:26.150Z,76.00
2023-04-29T06:02:12.000Z,76.89
2023-04-29T06:04:58.043Z,74.43
2023-04-29T06:07:44.255Z,73.34
2023-04-29T06:10:30.075Z,79.53
2023-04-29T06:13:16.072Z,80.51
2023-04-29T06:16:02.012Z,79.90
2023-04-29T06:18:47.868Z,84.30
2023-04-29T06:21:33.768Z,84.02
2023-04-29T06:24:21.546Z,81.23
2023-04-29T06:27:07.289Z,80.14
2023-04-29T06:29:53.473Z,79.28
2023-04-29T06:32:39.658Z,75.74
2023-04-29T06:35:25.593Z,74.58
2023-04-29T06:38:11.544Z,73.20
2023-04-29T06:40:57.346Z,71.19
2023-04-29T06:43:43.427Z,69.34
2023-04-29T06:46:29.461Z,68.30
2023-04-29T06:49:17.406Z,70.36
2023-04-29T06:52:03.343Z,73.21
2023-04-29T06:54:49.243Z,72.22
2023-04-29T06:57:34.944Z,70.29
2023-04-29T07:00:20.898Z,69.27
2023-04-29T07:03:06.802Z,67.04
2023-04-29T07:05:52.723Z,65.22
2023-04-29T07:08:38.606Z,64.77
2023-04-29T07:11:24.365Z,65.19
2023-04-29T07:14:10.167Z,65.56
2023-04-29T07:16:56.096Z,64.84
2023-04-29T07:19:42.072Z,64.43
2023-04-29T07:22:28.020Z,63.67
2023-04-29T07:25:15.740Z,66.45
2023-04-29T07:28:01.657Z,66.11
2023-04-29T07:30:47.596Z,67.47
2023-04-29T07:33:33.428Z,67.85
2023-04-29T07:36:19.225Z,67.27
2023-04-29T07:39:04.914Z,67.26
2023-04-29T07:41:50.815Z,66.24
2023-04-29T07:44:36.597Z,65.49
2023-04-29T07:47:22.368Z,64.55
2023-04-29T07:50:08.178Z,65.85
2023-04-29T07:52:54.027Z,67.76
2023-04-29T07:55:39.829Z,70.59
2023-04-29T07:58:25.650Z,71.79
2023-04-29T08:01:11.471Z,71.87
2023-04-29T08:03:57.573Z,69.93
2023-04-29T08:06:43.889Z,69.26
2023-04-29T08:09:29.699Z,68.70
2023-04-29T08:12:15.641Z,67.64
2023-04-29T08:15:01.536Z,67.33
2023-04-29T08:17:47.482Z,65.58
2023-04-29T08:20:33.385Z,64.02
2023-04-29T08:23:19.289Z,62.70
2023-04-29T08:26:05.069Z,61.82
2023-04-29T08:28:50.938Z,60.81
2023-04-29T08:31:36.769Z,60.69
2023-04-29T08:34:22.787Z,58.23
2023-04-29T08:37:08.681Z,58.52
2023-04-29T08:39:54.575Z,59.27
2023-04-29T08:42:40.446Z,59.66
2023-04-29T08:45:26.307Z,60.19
2023-04-29T08:48:12.402Z,58.81
2023-04-29T08:50:58.640Z,58.61
2023-04-29T08:53:44.487Z,58.21
2023-04-29T08:56:30.410Z,57.33
2023-04-29T08:59:16.297Z,55.97
2023-04-29T09:02:02.229Z,55.88
2023-04-29T09:04:48.239Z,56.49
2023-04-29T09:07:34.373Z,56.51
2023-04-29T09:10:20.115Z,56.08
2023-04-29T09:13:06.006Z,55.06
2023-04-29T09:15:51.815Z,55.79
2023-04-29T09:18:37.756Z,55.07
2023-04-29T09:21:23.593Z,54.89
2023-04-29T09:24:09.376Z,54.75
2023-04-29T09:26:55.168Z,54.65
2023-04-29T09:29:40.948Z,53.94
2023-04-29T09:32:26.908Z,52.27
2023-04-29T09:35:12.839Z,53.64
2023-04-29T09:37:58.726Z,54.89
2023-04-29T09:40:58.115Z,53.00
2023-04-29T09:43:45.072Z,53.22
2023-04-29T09:46:31.022Z,52.80
2023-04-29T09:49:16.809Z,55.48
2023-04-29T09:52:02.672Z,56.14
2023-04-29T09:54:48.632Z,57.55
2023-04-29T09:57:34.346Z,56.75
2023-04-29T10:00:20.190Z,55.67
2023-04-29T10:03:06.247Z,55.92
2023-04-29T10:05:52.131Z,54.16
2023-04-29T10:08:37.954Z,55.22
2023-04-29T10:11:23.743Z,54.74
2023-04-29T10:14:09.701Z,59.99
2023-04-29T10:16:55.605Z,57.52
2023-04-29T10:19:41.707Z,59.53
2023-04-29T10:22:27.605Z,58.70
2023-04-29T10:25:13.442Z,57.33
2023-04-29T10:27:59.428Z,62.67
2023-04-29T10:30:45.349Z,62.05
2023-04-29T10:33:31.116Z,62.28
2023-04-29T10:36:17.058Z,60.96
2023-04-29T10:39:02.957Z,63.57
2023-04-29T10:41:48.695Z,59.75
2023-04-29T10:44:34.630Z,58.56
2023-04-29T10:47:20.260Z,57.35
2023-04-29T10:50:06.119Z,61.69
2023-04-29T10:52:51.987Z,64.95
2023-04-29T10:55:37.748Z,62.63
2023-04-29T10:58:23.653Z,61.72
2023-04-29T11:01:09.511Z,62.99
2023-04-29T11:03:55.864Z,60.97
2023-04-29T11:06:42.504Z,60.70
2023-04-29T11:09:28.416Z,59.66
2023-04-29T11:12:14.377Z,57.66
2023-04-29T11:15:00.346Z,56.99
2023-04-29T11:17:46.179Z,54.82
2023-04-29T11:20:32.047Z,57.94
2023-04-29T11:23:17.910Z,58.06
2023-04-29T11:26:03.680Z,61.80
2023-04-29T11:28:49.533Z,65.71
2023-04-29T11:31:35.373Z,65.84
2023-04-29T11:34:21.478Z,66.46
2023-04-29T11:37:07.363Z,66.00
2023-04-29T11:39:53.190Z,67.71
2023-04-29T11:42:39.168Z,69.46
2023-04-29T11:45:25.211Z,71.44
2023-04-29T11:48:11.087Z,70.62
2023-04-29T11:50:57.071Z,71.10
2023-04-29T11:53:42.831Z,69.51
2023-04-29T11:56:28.742Z,68.73
2023-04-29T11:59:14.659Z,66.72
2023-04-29T12:02:00.494Z,62.83
2023-04-29T12:04:46.746Z,68.34
2023-04-29T12:07:32.909Z,65.69
2023-04-29T12:10:18.675Z,62.26
2023-04-29T12:13:04.603Z,61.17
2023-04-29T12:15:50.409Z,58.30
2023-04-29T12:18:36.322Z,62.02
2023-04-29T12:21:22.305Z,60.06
2023-04-29T12:24:08.125Z,58.86
2023-04-29T12:26:53.985Z,55.56
2023-04-29T12:29:39.891Z,56.80
2023-04-29T12:32:25.952Z,54.64
2023-04-29T12:35:12.038Z,51.81
2023-04-29T12:37:57.868Z,53.57
2023-04-29T12:40:43.731Z,51.08
2023-04-29T12:43:29.672Z,52.15
2023-04-29T12:46:15.501Z,52.60
2023-04-29T12:49:01.337Z,52.44
2023-04-29T12:51:47.136Z,52.29
2023-04-29T12:54:33.033Z,52.01
2023-04-29T12:57:19.058Z,54.28
2023-04-29T13:00:04.816Z,54.59
2023-04-29T13:02:50.648Z,53.96
2023-04-29T13:05:36.733Z,55.13
2023-04-29T13:08:22.669Z,51.38
2023-04-29T13:11:08.580Z,53.11
2023-04-29T13:13:54.302Z,52.38
2023-04-29T13:16:40.890Z,50.28
2023-04-29T13:19:43.358Z,47.88
2023-04-29T13:22:33.103Z,49.25
2023-04-29T13:25:18.929Z,47.58
2023-04-29T13:28:04.908Z,48.08
2023-04-29T13:30:50.745Z,45.66
2023-04-29T13:33:39.796Z,43.75
2023-04-29T13:36:26.030Z,45.11
2023-04-29T13:39:11.840Z,45.01
2023-04-29T13:41:59.164Z,44.24
2023-04-29T13:44:52.338Z,46.03
2023-04-29T13:48:00.316Z,44.27
2023-04-29T13:54:10.597Z,48.62
2023-04-29T13:57:27.137Z,45.31
2023-04-29T13:59:52.289Z,48.73
2023-04-29T14:02:39.319Z,48.22
2023-04-29T14:05:25.706Z,49.40
2023-04-29T14:08:11.883Z,55.20
2023-04-29T14:10:57.730Z,48.91
2023-04-29T14:13:43.574Z,56.93
2023-04-29T14:16:29.556Z,52.57
2023-04-29T14:19:15.344Z,56.03
2023-04-29T14:22:01.789Z,55.39
2023-04-29T14:24:47.575Z,55.01
2023-04-29T14:27:33.321Z,53.82
2023-04-29T14:30:21.226Z,51.21
2023-04-29T14:33:07.133Z,53.39
2023-04-29T14:35:54.956Z,54.66
2023-04-29T14:38:40.760Z,53.55
2023-04-29T14:41:26.677Z,51.21
2023-04-29T14:44:12.641Z,53.02
2023-04-29T14:46:58.600Z,50.48
2023-04-29T14:49:44.353Z,50.12
2023-04-29T14:52:30.247Z,47.96
2023-04-29T14:55:16.283Z,47.44
2023-04-29T14:58:02.083Z,46.48
2023-04-29T15:00:47.928Z,51.22
2023-04-29T15:03:33.721Z,53.33
2023-04-29T15:06:19.557Z,51.48
2023-04-29T15:09:05.468Z,46.90
2023-04-29T15:11:51.264Z,49.00
2023-04-29T15:14:37.121Z,48.43
2023-04-29T15:17:22.988Z,51.01
2023-04-29T15:20:08.841Z,49.25
2023-04-29T15:22:54.875Z,47.99
2023-04-29T15:25:40.659Z,48.19
2023-04-29T15:28:26.522Z,48.07
2023-04-29T15:31:12.413Z,47.47
2023-04-29T15:33:58.105Z,45.75
2023-04-29T15:36:43.989Z,47.50
2023-04-29T15:39:29.829Z,48.67
2023-04-29T15:42:15.633Z,45.46
2023-04-29T15:45:01.581Z,45.30
2023-04-29T15:47:47.388Z,48.12
2023-04-29T15:50:33.331Z,46.96
2023-04-29T15:53:19.594Z,46.65
2023-04-29T15:56:05.314Z,46.09
2023-04-29T15:58:51.293Z,55.20
2023-04-29T16:01:37.118Z,64.04
2023-04-29T16:04:22.996Z,67.26
2023-04-29T16:07:09.096Z,72.81
2023-04-29T16:09:55.254Z,75.79
2023-04-29T16:12:41.389Z,81.05
2023-04-29T16:15:27.270Z,75.32
2023-04-29T16:18:13.115Z,71.79
2023-04-29T16:20:59.093Z,68.10
2023-04-29T16:23:45.049Z,69.78
2023-04-29T16:26:30.965Z,66.60
2023-04-29T16:29:17.025Z,67.46
2023-04-29T16:32:02.773Z,65.83
2023-04-29T16:34:48.649Z,67.09
2023-04-29T16:37:34.470Z,71.39
2023-04-29T16:40:20.406Z,72.42
2023-04-29T16:43:06.467Z,70.98
2023-04-29T16:45:52.319Z,70.79
2023-04-29T16:48:38.333Z,68.16
2023-04-29T16:51:24.329Z,67.28
2023-04-29T16:54:10.145Z,66.40
2023-04-29T16:56:56.223Z,65.06
2023-04-29T16:59:42.279Z,64.80
2023-04-29T17:02:28.229Z,64.74
2023-04-29T17:05:14.198Z,64.44
2023-04-29T17:07:59.902Z,62.36
2023-04-29T17:10:45.750Z,65.64
2023-04-29T17:13:31.700Z,63.91
2023-04-29T17:16:17.540Z,63.92
2023-04-29T17:19:03.584Z,65.73
2023-04-29T17:21:49.483Z,66.22
2023-04-29T17:24:35.422Z,67.97
2023-04-29T17:27:21.239Z,66.10
2023-04-29T17:30:06.939Z,67.05
2023-04-29T17:32:52.900Z,66.85
2023-04-29T17:35:38.715Z,67.22
2023-04-29T17:38:24.468Z,65.23
2023-04-29T17:41:10.514Z,63.79
2023-04-29T17:43:56.342Z,62.82
2023-04-29T17:46:42.298Z,62.11
2023-04-29T17:49:28.193Z,62.12
2023-04-29T17:52:14.047Z,64.29
2023-04-29T17:54:59.932Z,66.37
2023-04-29T17:57:45.848Z,66.50
2023-04-29T18:00:31.716Z,68.81
2023-04-29T18:03:17.824Z,70.70
2023-04-29T18:06:03.771Z,70.02
2023-04-29T18:08:49.725Z,69.92
2023-04-29T18:11:35.482Z,62.59
2023-04-29T18:14:21.433Z,60.69
2023-04-29T18:17:07.619Z,60.83
2023-04-29T18:19:53.868Z,64.64
2023-04-29T18:22:40.191Z,63.81
2023-04-29T18:25:26.118Z,64.08
2023-04-29T18:28:23.550Z,64.76
2023-04-29T18:31:10.419Z,65.57
2023-04-29T18:33:56.321Z,66.18
2023-04-29T18:36:42.220Z,65.96
2023-04-29T18:39:28.128Z,66.24
2023-04-29T18:42:13.947Z,66.15
2023-04-29T18:44:59.825Z,65.73
2023-04-29T18:47:45.877Z,66.90
2023-04-29T18:50:31.902Z,65.10
2023-04-29T18:53:17.844Z,66.23
2023-04-29T18:56:03.658Z,66.20
2023-04-29T18:58:49.564Z,66.29
2023-04-29T19:01:35.598Z,65.31
2023-04-29T19:04:21.722Z,64.67
2023-04-29T19:07:07.727Z,64.59
2023-04-29T19:09:53.802Z,66.13
2023-04-29T19:12:40.048Z,68.89
2023-04-29T19:15:25.928Z,68.41
2023-04-29T19:18:11.838Z,70.66
2023-04-29T19:20:57.768Z,72.72
2023-04-29T19:23:43.663Z,75.09
2023-04-29T19:26:30.232Z,77.29
2023-04-29T19:29:17.028Z,75.15
2023-04-29T19:32:02.933Z,70.51
2023-04-29T19:34:48.710Z,70.78
2023-04-29T19:37:34.653Z,69.66
2023-04-29T19:40:20.560Z,70.95
2023-04-29T19:43:06.353Z,72.16
2023-04-29T19:45:52.236Z,73.46
2023-04-29T19:48:40.074Z,76.69
2023-04-29T19:51:25.978Z,77.75
2023-04-29T19:54:11.839Z,78.62
2023-04-29T19:56:57.799Z,81.46
2023-04-29T19:59:43.756Z,84.73
2023-04-29T20:02:29.688Z,87.13
2023-04-29T20:05:15.635Z,90.85
2023-04-29T20:08:01.563Z,93.65
2023-04-29T20:10:47.482Z,94.85
2023-04-29T20:13:33.471Z,98.80
2023-04-29T20:16:19.442Z,96.81
2023-04-29T20:19:05.391Z,97.16
2023-04-29T20:21:51.147Z,94.89
2023-04-29T20:24:36.987Z,92.99
2023-04-29T20:27:23.020Z,92.65
2023-04-29T20:30:08.896Z,88.75
2023-04-29T20:32:54.682Z,87.41
2023-04-29T20:35:40.697Z,87.90
2023-04-29T20:38:26.460Z,86.36
2023-04-29T20:41:12.277Z,87.16
2023-04-29T20:43:58.146Z,86.37
2023-04-29T20:46:43.883Z,88.47
2023-04-29T20:49:29.725Z,87.02
2023-04-29T20:52:15.665Z,85.92
2023-04-29T20:55:01.537Z,85.71
2023-04-29T20:57:47.484Z,86.28
2023-04-29T21:00:33.256Z,85.58
2023-04-29T21:03:19.147Z,85.30
2023-04-29T21:06:05.164Z,82.61
2023-04-29T21:08:51.138Z,79.66
2023-04-29T21:11:37.019Z,78.23
2023-04-29T21:14:22.817Z,76.72
2023-04-29T21:17:08.596Z,76.20
2023-04-29T21:19:54.672Z,77.41
2023-04-29T21:22:40.780Z,77.27
2023-04-29T21:25:26.679Z,78.52
2023-04-29T21:28:13.854Z,79.06
2023-04-29T21:31:00.977Z,79.42
2023-04-29T21:33:46.826Z,81.26
2023-04-29T21:36:33.802Z,80.64
2023-04-29T21:39:19.734Z,80.62
2023-04-29T21:42:05.634Z,80.18
2023-04-29T21:44:51.635Z,82.18
2023-04-29T21:47:37.477Z,82.81
2023-04-29T21:50:23.318Z,84.24
2023-04-29T21:53:09.211Z,85.05
2023-04-29T21:55:55.129Z,86.46
2023-04-29T21:58:42.030Z,85.75
2023-04-29T22:01:28.774Z,86.25
2023-04-29T22:04:14.675Z,87.34
2023-04-29T22:07:00.613Z,88.81
2023-04-29T22:09:46.553Z,89.68
2023-04-29T22:12:32.509Z,89.55
2023-04-29T22:15:28.148Z,92.02
2023-04-29T22:18:15.221Z,91.94
2023-04-29T22:21:01.120Z,93.82
2023-04-29T22:23:47.096Z,95.31
2023-04-29T22:26:33.129Z,94.39
2023-04-29T22:29:18.875Z,94.95
2023-04-29T22:32:24.880Z,94.62
2023-04-29T22:35:18.182Z,95.68
2023-04-29T22:38:04.226Z,95.92
2023-04-29T22:40:50.187Z,96.25
2023-04-29T22:43:36.032Z,96.82
2023-04-29T22:46:21.960Z,99.59
2023-04-29T22:49:07.804Z,100.00
2023-04-29T22:51:53.683Z,98.73
2023-04-29T22:54:39.777Z,99.50
2023-04-29T22:57:25.620Z,100.00
2023-04-29T23:03:46.677Z,100.00
2023-04-29T23:06:32.502Z,100.00
2023-04-29T23:09:18.329Z,100.00
2023-04-29T23:12:04.098Z,100.00
2023-04-29T23:14:50.042Z,100.00
2023-04-29T23:17:35.893Z,100.00
2023-04-29T23:20:21.668Z,100.00
2023-04-29T23:23:07.510Z,100.00
2023-04-29T23:25:53.409Z,100.00
2023-04-29T23:28:39.326Z,100.00
2023-04-29T23:31:25.124Z,100.00
2023-04-29T23:34:10.966Z,100.00
2023-04-29T23:36:56.802Z,100.00
2023-04-29T23:39:42.797Z,100.00
2023-04-29T23:42:28.590Z,100.00
2023-04-29T23:45:14.540Z,100.00
2023-04-29T23:48:00.392Z,100.00
2023-04-29T23:50:46.575Z,100.00
2023-04-29T23:53:32.566Z,100.00
2023-04-29T23:56:18.432Z,100.00
2023-04-29T23:59:04.370Z,100.00
